createdAt,value
2018-06-29T00:00:01.878Z,96875.08
2018-06-29T00:02:29.340Z,96869.49
2018-06-29T00:04:56.816Z,96862.09
2018-06-29T00:07:24.748Z,96859.88
2018-06-29T00:09:52.148Z,96852.18
2018-06-29T00:12:19.612Z,96853.02
2018-06-29T00:14:47.090Z,96856.09
2018-06-29T00:17:14.564Z,96858.66
2018-06-29T00:19:42.025Z,96855.00
2018-06-29T00:22:10.434Z,96849.77
2018-06-29T00:24:37.893Z,96855.52
2018-06-29T00:27:05.312Z,96854.56
2018-06-29T00:29:32.751Z,96860.95
2018-06-29T00:32:00.173Z,96857.27
2018-06-29T00:34:27.672Z,96856.13
2018-06-29T00:36:55.218Z,96865.77
2018-06-29T00:39:22.618Z,96864.85
2018-06-29T00:41:50.141Z,96873.89
2018-06-29T00:44:17.559Z,96871.11
2018-06-29T00:46:46.770Z,96860.19
2018-06-29T00:49:14.209Z,96858.83
2018-06-29T00:51:41.682Z,96857.72
2018-06-29T00:54:09.093Z,96857.19
2018-06-29T00:56:36.567Z,96862.09
2018-06-29T00:59:04.034Z,96860.14
2018-06-29T01:01:31.484Z,96856.59
2018-06-29T01:03:58.911Z,96859.23
2018-06-29T01:06:26.375Z,96852.61
2018-06-29T01:08:53.817Z,96847.94
2018-06-29T01:11:21.254Z,96848.18
2018-06-29T01:13:48.720Z,96844.64
2018-06-29T01:16:16.317Z,96848.48
2018-06-29T01:18:43.762Z,96843.28
2018-06-29T01:21:11.232Z,96841.83
2018-06-29T01:23:38.702Z,96844.02
2018-06-29T01:26:06.103Z,96845.91
2018-06-29T01:28:33.584Z,96842.56
2018-06-29T01:31:00.970Z,96848.89
2018-06-29T01:33:28.427Z,96851.42
2018-06-29T01:35:55.888Z,96846.70
2018-06-29T01:38:23.531Z,96842.48
2018-06-29T01:40:51.047Z,96840.59
2018-06-29T01:43:18.472Z,96838.02
2018-06-29T01:45:45.932Z,96847.25
2018-06-29T01:48:13.397Z,96846.63
2018-06-29T01:50:40.837Z,96851.84
2018-06-29T01:53:08.342Z,96845.05
2018-06-29T01:55:35.809Z,96839.47
2018-06-29T01:58:03.255Z,96834.14
2018-06-29T02:00:30.701Z,96843.41
2018-06-29T02:02:58.122Z,96839.72
2018-06-29T02:05:25.734Z,96837.30
2018-06-29T02:07:53.174Z,96846.91
2018-06-29T02:10:20.619Z,96842.25
2018-06-29T02:12:48.019Z,96845.55
2018-06-29T02:15:15.502Z,96853.37
2018-06-29T02:17:42.945Z,96849.39
2018-06-29T02:20:10.408Z,96843.63
2018-06-29T02:22:38.004Z,96852.23
2018-06-29T02:25:05.507Z,96850.41
2018-06-29T02:27:32.945Z,96849.78
2018-06-29T02:30:00.401Z,96841.62
2018-06-29T02:32:27.915Z,96835.94
2018-06-29T02:34:55.337Z,96842.27
2018-06-29T02:37:22.748Z,96841.44
2018-06-29T02:39:50.238Z,96845.37
2018-06-29T02:42:17.717Z,96847.58
2018-06-29T02:44:45.118Z,96847.63
2018-06-29T02:47:12.612Z,96847.20
2018-06-29T02:49:40.634Z,96841.94
2018-06-29T02:52:08.241Z,96836.07
2018-06-29T02:54:36.362Z,96839.06
2018-06-29T02:57:03.771Z,96839.89
2018-06-29T02:59:31.222Z,96840.66
2018-06-29T03:01:58.629Z,96835.77
2018-06-29T03:04:26.116Z,96837.52
2018-06-29T03:06:53.674Z,96831.37
2018-06-29T03:09:21.150Z,96834.81
2018-06-29T03:11:48.635Z,96839.92
2018-06-29T03:14:16.207Z,96835.54
2018-06-29T03:16:43.694Z,96838.57
2018-06-29T03:19:11.147Z,96836.91
2018-06-29T03:21:38.593Z,96843.47
2018-06-29T03:24:06.255Z,96828.78
2018-06-29T03:26:33.805Z,96838.06
2018-06-29T03:29:01.667Z,96843.92
2018-06-29T03:31:29.235Z,96845.44
2018-06-29T03:33:56.715Z,96845.57
2018-06-29T03:36:24.196Z,96849.47
2018-06-29T03:38:51.603Z,96854.63
2018-06-29T03:41:19.038Z,96856.09
2018-06-29T03:43:46.725Z,96857.19
2018-06-29T03:46:14.168Z,96856.60
2018-06-29T03:48:41.651Z,96857.56
2018-06-29T03:51:09.080Z,96860.16
2018-06-29T03:53:36.476Z,96854.98
2018-06-29T03:56:03.878Z,96859.38
2018-06-29T03:58:31.312Z,96853.20
2018-06-29T04:00:58.706Z,96859.42
2018-06-29T04:03:26.193Z,96861.35
2018-06-29T04:05:54.667Z,96865.33
2018-06-29T04:08:22.105Z,96866.48
2018-06-29T04:10:49.610Z,96861.91
2018-06-29T04:13:17.006Z,96861.19
2018-06-29T04:15:44.477Z,96864.42
2018-06-29T04:18:11.937Z,96870.52
2018-06-29T04:20:39.369Z,96865.98
2018-06-29T04:23:06.817Z,96877.88
2018-06-29T04:25:34.253Z,96876.59
2018-06-29T04:28:01.720Z,96873.73
2018-06-29T04:30:29.277Z,96873.58
2018-06-29T04:32:56.724Z,96877.66
2018-06-29T04:35:24.143Z,96876.47
2018-06-29T04:37:51.589Z,96884.56
2018-06-29T04:40:19.078Z,96874.57
2018-06-29T04:42:46.526Z,96886.34
2018-06-29T04:45:13.962Z,96885.39
2018-06-29T04:47:41.422Z,96881.08
2018-06-29T04:50:08.906Z,96883.96
2018-06-29T04:52:36.391Z,96877.28
2018-06-29T04:55:04.091Z,96893.23
2018-06-29T04:57:31.594Z,96890.14
2018-06-29T04:59:59.064Z,96894.13
2018-06-29T05:02:26.560Z,96888.31
2018-06-29T05:04:54.016Z,96900.72
2018-06-29T05:07:21.535Z,96905.97
2018-06-29T05:09:48.982Z,96900.81
2018-06-29T05:12:16.401Z,96897.80
2018-06-29T05:14:43.868Z,96897.91
2018-06-29T05:17:11.535Z,96901.70
2018-06-29T05:19:38.999Z,96903.94
2018-06-29T05:22:06.555Z,96900.30
2018-06-29T05:24:34.030Z,96903.66
2018-06-29T05:27:01.585Z,96899.76
2018-06-29T05:29:29.084Z,96906.36
2018-06-29T05:31:56.564Z,96905.44
2018-06-29T05:34:24.009Z,96911.20
2018-06-29T05:36:51.472Z,96916.94
2018-06-29T05:39:18.903Z,96916.20
2018-06-29T05:41:47.061Z,96917.88
2018-06-29T05:44:14.465Z,96914.34
2018-06-29T05:46:41.885Z,96921.55
2018-06-29T05:49:09.422Z,96923.33
2018-06-29T05:51:36.957Z,96927.61
2018-06-29T05:54:04.366Z,96930.16
2018-06-29T05:56:31.814Z,96921.58
2018-06-29T05:58:59.242Z,96926.84
2018-06-29T06:01:26.693Z,96933.02
2018-06-29T06:03:54.261Z,96934.20
2018-06-29T06:06:21.716Z,96936.37
2018-06-29T06:08:49.182Z,96938.52
2018-06-29T06:11:16.687Z,96935.20
2018-06-29T06:13:44.271Z,96937.56
2018-06-29T06:16:11.781Z,96935.89
2018-06-29T06:18:39.234Z,96928.63
2018-06-29T06:21:06.667Z,96943.75
2018-06-29T06:23:34.147Z,96946.77
2018-06-29T06:26:01.584Z,96940.81
2018-06-29T06:28:29.107Z,96937.59
2018-06-29T06:30:56.620Z,96933.25
2018-06-29T06:33:24.115Z,96938.78
2018-06-29T06:35:51.814Z,96939.94
2018-06-29T06:38:19.256Z,96942.44
2018-06-29T06:40:46.657Z,96942.42
2018-06-29T06:43:14.083Z,96936.44
2018-06-29T06:45:41.538Z,96952.34
2018-06-29T06:48:08.972Z,96942.88
2018-06-29T06:50:36.412Z,96947.42
2018-06-29T06:53:03.952Z,96941.48
2018-06-29T06:55:31.387Z,96943.97
2018-06-29T06:57:59.175Z,96951.08
2018-06-29T07:00:26.611Z,96950.59
2018-06-29T07:02:54.069Z,96947.42
2018-06-29T07:05:21.502Z,96953.53
2018-06-29T07:07:49.026Z,96944.34
2018-06-29T07:10:16.491Z,96949.59
2018-06-29T07:12:44.113Z,96952.05
2018-06-29T07:15:11.539Z,96946.67
2018-06-29T07:17:38.963Z,96947.69
2018-06-29T07:20:06.443Z,96942.10
2018-06-29T07:22:34.869Z,96949.46
2018-06-29T07:25:02.320Z,96951.00
2018-06-29T07:27:29.817Z,96945.97
2018-06-29T07:29:57.307Z,96954.17
2018-06-29T07:32:24.747Z,96945.53
2018-06-29T07:34:52.248Z,96948.22
2018-06-29T07:37:19.782Z,96955.41
2018-06-29T07:39:47.259Z,96947.14
2018-06-29T07:42:14.732Z,96947.23
2018-06-29T07:44:42.243Z,96948.38
2018-06-29T07:47:09.752Z,96954.66
2018-06-29T07:49:37.351Z,96949.05
2018-06-29T07:52:04.800Z,96949.11
2018-06-29T07:54:32.287Z,96942.63
2018-06-29T07:57:00.810Z,96946.17
2018-06-29T07:59:28.460Z,96951.66
2018-06-29T08:01:55.737Z,96950.77
2018-06-29T08:04:22.812Z,96945.97
2018-06-29T08:06:50.334Z,96946.31
2018-06-29T08:09:17.747Z,96950.02
2018-06-29T08:11:45.214Z,96941.94
2018-06-29T08:14:12.346Z,96945.62
2018-06-29T08:16:39.338Z,96942.41
2018-06-29T08:19:06.338Z,96943.34
2018-06-29T08:21:33.396Z,96937.84
2018-06-29T08:24:00.652Z,96941.09
2018-06-29T08:26:27.680Z,96939.12
2018-06-29T08:28:55.150Z,96939.64
2018-06-29T08:31:22.675Z,96939.31
2018-06-29T08:33:50.178Z,96942.88
2018-06-29T08:36:17.713Z,96938.83
2018-06-29T08:38:45.234Z,96931.43
2018-06-29T08:41:12.753Z,96933.08
2018-06-29T08:43:40.639Z,96935.08
2018-06-29T08:46:09.147Z,96935.86
2018-06-29T08:48:36.142Z,96936.81
2018-06-29T08:51:03.138Z,96936.02
2018-06-29T08:53:30.157Z,96936.89
2018-06-29T08:55:57.221Z,96931.65
2018-06-29T08:58:25.137Z,96929.55
2018-06-29T09:00:52.259Z,96922.84
2018-06-29T09:03:19.426Z,96927.72
2018-06-29T09:05:46.399Z,96924.25
2018-06-29T09:08:13.392Z,96931.55
2018-06-29T09:10:40.369Z,96928.39
2018-06-29T09:13:07.448Z,96927.69
2018-06-29T09:15:34.515Z,96923.56
2018-06-29T09:18:01.475Z,96927.23
2018-06-29T09:20:28.649Z,96920.98
2018-06-29T09:22:56.219Z,96923.83
2018-06-29T09:25:23.659Z,96921.12
2018-06-29T09:27:50.669Z,96923.63
2018-06-29T09:30:17.667Z,96928.25
2018-06-29T09:32:44.666Z,96929.00
2018-06-29T09:35:12.106Z,96920.33
2018-06-29T09:37:40.756Z,96914.69
2018-06-29T09:40:08.356Z,96921.45
2018-06-29T09:42:36.457Z,96924.13
2018-06-29T09:45:03.887Z,96917.08
2018-06-29T09:47:31.516Z,96918.69
2018-06-29T09:49:59.008Z,96917.68
2018-06-29T09:52:26.521Z,96918.56
2018-06-29T09:54:54.526Z,96913.01
2018-06-29T09:57:21.994Z,96917.09
2018-06-29T09:59:49.846Z,96915.52
2018-06-29T10:02:17.305Z,96916.42
2018-06-29T10:04:44.727Z,96912.45
2018-06-29T10:07:12.149Z,96916.11
2018-06-29T10:09:39.623Z,96918.20
2018-06-29T10:12:07.180Z,96914.50
2018-06-29T10:14:34.667Z,96917.77
2018-06-29T10:17:02.211Z,96923.55
2018-06-29T10:19:30.679Z,96923.88
2018-06-29T10:21:57.590Z,96914.09
2018-06-29T10:24:24.608Z,96913.23
2018-06-29T10:26:52.714Z,96917.38
2018-06-29T10:29:20.170Z,96919.66
2018-06-29T10:31:47.665Z,96917.12
2018-06-29T10:34:14.698Z,96916.52
2018-06-29T10:36:41.739Z,96910.10
2018-06-29T10:39:09.228Z,96914.41
2018-06-29T10:41:36.683Z,96915.98
2018-06-29T10:44:03.868Z,96910.59
2018-06-29T10:46:30.938Z,96917.88
2018-06-29T10:48:58.058Z,96909.92
2018-06-29T10:51:25.173Z,96912.19
2018-06-29T10:53:52.608Z,96909.54
2018-06-29T10:56:20.083Z,96908.31
2018-06-29T10:58:47.516Z,96911.97
2018-06-29T11:01:14.971Z,96908.45
2018-06-29T11:03:42.439Z,96910.50
2018-06-29T11:06:09.885Z,96901.92
2018-06-29T11:08:37.360Z,96898.28
2018-06-29T11:11:04.981Z,96892.67
2018-06-29T11:13:32.447Z,96894.03
2018-06-29T11:15:59.896Z,96891.58
2018-06-29T11:18:27.385Z,96887.56
2018-06-29T11:20:54.847Z,96885.72
2018-06-29T11:23:22.345Z,96881.36
2018-06-29T11:25:49.812Z,96881.69
2018-06-29T11:28:17.415Z,96879.38
2018-06-29T11:30:44.880Z,96878.41
2018-06-29T11:33:12.384Z,96878.33
2018-06-29T11:35:39.820Z,96880.09
2018-06-29T11:38:07.415Z,96877.47
2018-06-29T11:40:35.107Z,96872.95
2018-06-29T11:43:02.579Z,96875.65
2018-06-29T11:45:30.275Z,96876.17
2018-06-29T11:47:57.883Z,96871.70
2018-06-29T11:50:25.346Z,96866.72
2018-06-29T11:52:52.743Z,96860.92
2018-06-29T11:55:20.207Z,96869.33
2018-06-29T11:57:47.651Z,96862.59
2018-06-29T12:00:15.147Z,96855.05
2018-06-29T12:02:42.776Z,96860.84
2018-06-29T12:05:10.503Z,96850.78
2018-06-29T12:07:37.963Z,96858.48
2018-06-29T12:10:05.524Z,96858.34
2018-06-29T12:12:33.024Z,96853.14
2018-06-29T12:15:00.568Z,96849.77
2018-06-29T12:17:28.010Z,96846.32
2018-06-29T12:19:55.527Z,96841.12
2018-06-29T12:22:23.164Z,96841.67
2018-06-29T12:24:50.610Z,96849.77
2018-06-29T12:27:18.101Z,96838.46
2018-06-29T12:29:45.599Z,96851.52
2018-06-29T12:32:13.105Z,96840.62
2018-06-29T12:34:40.723Z,96842.48
2018-06-29T12:37:08.326Z,96844.23
2018-06-29T12:39:35.797Z,96839.12
2018-06-29T12:42:03.286Z,96842.56
2018-06-29T12:44:30.764Z,96826.01
2018-06-29T12:46:58.326Z,96826.03
2018-06-29T12:49:25.770Z,96828.69
2018-06-29T12:51:53.198Z,96831.88
2018-06-29T12:54:26.583Z,96834.40
2018-06-29T12:56:54.039Z,96834.92
2018-06-29T12:59:21.572Z,96823.88
2018-06-29T13:01:49.051Z,96823.18
2018-06-29T13:04:16.559Z,96819.41
2018-06-29T13:06:44.020Z,96816.03
2018-06-29T13:09:11.435Z,96814.58
2018-06-29T13:11:39.043Z,96812.33
2018-06-29T13:14:07.120Z,96814.78
2018-06-29T13:16:34.592Z,96802.51
2018-06-29T13:19:02.048Z,96807.66
2018-06-29T13:21:29.604Z,96809.30
2018-06-29T13:23:57.031Z,96806.09
2018-06-29T13:26:24.477Z,96808.22
2018-06-29T13:28:52.006Z,96806.30
2018-06-29T13:31:19.487Z,96798.36
2018-06-29T13:33:47.523Z,96802.62
2018-06-29T13:36:15.050Z,96799.27
2018-06-29T13:38:43.234Z,96790.81
2018-06-29T13:41:11.010Z,96789.22
2018-06-29T13:43:39.172Z,96790.29
2018-06-29T13:46:06.668Z,96791.72
2018-06-29T13:48:34.961Z,96789.18
2018-06-29T13:51:02.452Z,96789.23
2018-06-29T13:53:30.386Z,96784.52
2018-06-29T13:55:58.001Z,96783.05
2018-06-29T13:58:25.567Z,96785.34
2018-06-29T14:00:53.625Z,96788.33
2018-06-29T14:03:21.675Z,96784.03
2018-06-29T14:05:49.204Z,96784.11
2018-06-29T14:08:16.618Z,96786.26
2018-06-29T14:10:44.422Z,96786.30
2018-06-29T14:13:11.909Z,96775.06
2018-06-29T14:15:39.416Z,96774.88
2018-06-29T14:18:06.947Z,96767.53
2018-06-29T14:20:34.332Z,96774.08
2018-06-29T14:23:01.885Z,96765.06
2018-06-29T14:25:29.968Z,96774.95
2018-06-29T14:27:57.417Z,96772.44
2018-06-29T14:30:25.020Z,96776.72
2018-06-29T14:32:52.483Z,96774.53
2018-06-29T14:35:20.744Z,96778.78
2018-06-29T14:37:48.233Z,96773.22
2018-06-29T14:40:15.682Z,96772.64
2018-06-29T14:42:44.241Z,96765.00
2018-06-29T14:45:11.810Z,96768.28
2018-06-29T14:47:39.321Z,96760.90
2018-06-29T14:50:06.773Z,96759.20
2018-06-29T14:52:34.339Z,96764.06
2018-06-29T14:55:01.824Z,96763.02
2018-06-29T14:57:29.368Z,96760.42
2018-06-29T14:59:56.803Z,96766.05
2018-06-29T15:02:24.251Z,96760.92
2018-06-29T15:04:51.864Z,96753.99
2018-06-29T15:07:19.289Z,96757.63
2018-06-29T15:09:46.888Z,96753.92
2018-06-29T15:12:14.385Z,96751.00
2018-06-29T15:14:41.913Z,96751.73
2018-06-29T15:17:09.337Z,96747.44
2018-06-29T15:19:36.891Z,96746.50
2018-06-29T15:22:04.441Z,96738.25
2018-06-29T15:24:32.371Z,96739.04
2018-06-29T15:26:59.965Z,96740.16
2018-06-29T15:29:27.374Z,96740.47
2018-06-29T15:31:54.840Z,96743.23
2018-06-29T15:34:22.281Z,96742.47
2018-06-29T15:36:50.452Z,96741.27
2018-06-29T15:39:17.857Z,96742.20
2018-06-29T15:41:45.318Z,96742.45
2018-06-29T15:44:12.851Z,96745.35
2018-06-29T15:46:40.531Z,96738.45
2018-06-29T15:49:08.006Z,96740.33
2018-06-29T15:51:35.635Z,96735.36
2018-06-29T15:54:03.222Z,96742.98
2018-06-29T15:56:30.768Z,96737.88
2018-06-29T15:58:58.280Z,96737.34
2018-06-29T16:01:25.879Z,96739.55
2018-06-29T16:03:53.281Z,96738.61
2018-06-29T16:06:20.910Z,96737.22
2018-06-29T16:08:48.385Z,96735.88
2018-06-29T16:11:16.399Z,96738.56
2018-06-29T16:13:44.001Z,96727.70
2018-06-29T16:16:11.465Z,96739.58
2018-06-29T16:18:39.008Z,96739.17
2018-06-29T16:21:06.713Z,96738.16
2018-06-29T16:23:34.204Z,96740.83
2018-06-29T16:26:01.721Z,96743.93
2018-06-29T16:28:29.245Z,96737.19
2018-06-29T16:30:56.664Z,96737.19
2018-06-29T16:33:24.102Z,96738.02
2018-06-29T16:35:51.560Z,96733.45
2018-06-29T16:38:18.996Z,96738.39
2018-06-29T16:40:46.529Z,96738.34
2018-06-29T16:43:14.002Z,96733.94
2018-06-29T16:45:41.746Z,96746.09
2018-06-29T16:48:09.211Z,96741.47
2018-06-29T16:50:36.661Z,96742.58
2018-06-29T16:53:04.068Z,96743.75
2018-06-29T16:55:31.505Z,96744.05
2018-06-29T16:57:59.456Z,96737.28
2018-06-29T17:00:26.928Z,96741.26
2018-06-29T17:02:54.377Z,96742.92
2018-06-29T17:05:21.853Z,96742.67
2018-06-29T17:07:49.395Z,96746.51
2018-06-29T17:10:16.889Z,96743.54
2018-06-29T17:12:44.447Z,96741.05
2018-06-29T17:15:11.949Z,96746.27
2018-06-29T17:17:39.388Z,96745.59
2018-06-29T17:20:06.846Z,96746.27
2018-06-29T17:22:34.294Z,96749.61
2018-06-29T17:25:01.807Z,96739.73
2018-06-29T17:27:29.261Z,96746.42
2018-06-29T17:29:56.683Z,96746.95
2018-06-29T17:32:24.194Z,96739.51
2018-06-29T17:34:51.691Z,96742.69
2018-06-29T17:37:19.163Z,96742.75
2018-06-29T17:39:46.653Z,96742.69
2018-06-29T17:42:14.101Z,96739.50
2018-06-29T17:44:41.694Z,96744.75
2018-06-29T17:47:09.137Z,96750.22
2018-06-29T17:49:36.590Z,96747.09
2018-06-29T17:52:04.136Z,96746.95
2018-06-29T17:54:31.641Z,96752.02
2018-06-29T17:56:59.113Z,96756.23
2018-06-29T17:59:26.507Z,96751.57
2018-06-29T18:01:53.922Z,96751.84
2018-06-29T18:04:21.438Z,96750.52
2018-06-29T18:06:49.021Z,96750.70
2018-06-29T18:09:16.549Z,96760.59
2018-06-29T18:11:44.038Z,96752.76
2018-06-29T18:14:11.586Z,96752.03
2018-06-29T18:16:39.031Z,96748.31
2018-06-29T18:19:07.399Z,96741.58
2018-06-29T18:21:34.962Z,96751.34
2018-06-29T18:24:02.448Z,96758.93
2018-06-29T18:26:29.883Z,96761.66
2018-06-29T18:28:57.575Z,96762.27
2018-06-29T18:31:24.996Z,96760.85
2018-06-29T18:33:52.580Z,96754.65
2018-06-29T18:36:20.128Z,96765.53
2018-06-29T18:38:47.563Z,96767.92
2018-06-29T18:41:15.015Z,96762.55
2018-06-29T18:43:42.538Z,96765.46
2018-06-29T18:46:10.013Z,96766.50
2018-06-29T18:48:37.456Z,96762.33
2018-06-29T18:51:05.084Z,96763.38
2018-06-29T18:53:32.547Z,96765.05
2018-06-29T18:55:59.998Z,96768.62
2018-06-29T18:58:27.497Z,96767.28
2018-06-29T19:00:54.992Z,96764.30
2018-06-29T19:03:22.406Z,96765.91
2018-06-29T19:05:49.929Z,96760.23
2018-06-29T19:08:17.531Z,96767.77
2018-06-29T19:10:44.963Z,96767.83
2018-06-29T19:13:12.433Z,96771.52
2018-06-29T19:15:39.824Z,96769.42
2018-06-29T19:18:07.350Z,96778.00
2018-06-29T19:20:34.753Z,96783.24
2018-06-29T19:23:02.294Z,96781.66
2018-06-29T19:25:29.715Z,96782.81
2018-06-29T19:27:57.160Z,96778.83
2018-06-29T19:30:24.652Z,96781.28
2018-06-29T19:32:52.354Z,96791.53
2018-06-29T19:35:19.822Z,96781.95
2018-06-29T19:37:47.364Z,96786.78
2018-06-29T19:40:14.831Z,96793.15
2018-06-29T19:42:42.717Z,96793.02
2018-06-29T19:45:10.234Z,96795.34
2018-06-29T19:47:38.398Z,96801.38
2018-06-29T19:50:05.864Z,96795.34
2018-06-29T19:52:33.274Z,96802.63
2018-06-29T19:55:00.772Z,96806.72
2018-06-29T19:57:28.252Z,96807.75
2018-06-29T19:59:55.733Z,96812.64
2018-06-29T20:02:23.287Z,96817.77
2018-06-29T20:04:50.815Z,96819.96
2018-06-29T20:07:18.267Z,96816.03
2018-06-29T20:09:45.753Z,96823.86
2018-06-29T20:12:13.257Z,96825.59
2018-06-29T20:14:40.751Z,96824.73
2018-06-29T20:17:08.296Z,96828.22
2018-06-29T20:19:35.770Z,96827.61
2018-06-29T20:22:03.218Z,96831.28
2018-06-29T20:24:30.659Z,96832.55
2018-06-29T20:26:58.168Z,96831.48
2018-06-29T20:29:25.634Z,96837.91
2018-06-29T20:31:53.136Z,96836.56
2018-06-29T20:34:20.675Z,96840.30
2018-06-29T20:36:48.064Z,96837.37
2018-06-29T20:39:15.619Z,96841.44
2018-06-29T20:41:43.139Z,96843.86
2018-06-29T20:44:10.588Z,96849.45
2018-06-29T20:46:38.162Z,96845.33
2018-06-29T20:49:05.619Z,96854.58
2018-06-29T20:51:33.211Z,96850.94
2018-06-29T20:54:00.758Z,96850.53
2018-06-29T20:56:28.239Z,96850.58
2018-06-29T20:58:55.821Z,96861.73
2018-06-29T21:01:23.293Z,96855.63
2018-06-29T21:03:50.768Z,96861.56
2018-06-29T21:06:19.631Z,96864.52
2018-06-29T21:08:47.180Z,96866.27
2018-06-29T21:11:14.678Z,96866.84
2018-06-29T21:13:42.161Z,96865.30
2018-06-29T21:16:09.630Z,96871.62
2018-06-29T21:18:37.184Z,96866.88
2018-06-29T21:21:04.680Z,96868.36
2018-06-29T21:23:32.183Z,96874.02
2018-06-29T21:25:59.614Z,96865.58
2018-06-29T21:28:27.109Z,96868.53
2018-06-29T21:30:54.572Z,96867.75
2018-06-29T21:33:22.076Z,96868.23
2018-06-29T21:35:49.600Z,96868.92
2018-06-29T21:38:17.101Z,96861.06
2018-06-29T21:40:44.648Z,96871.22
2018-06-29T21:43:12.174Z,96870.53
2018-06-29T21:45:39.612Z,96869.61
2018-06-29T21:48:07.019Z,96872.55
2018-06-29T21:50:34.472Z,96872.17
2018-06-29T21:53:01.990Z,96868.16
2018-06-29T21:55:29.416Z,96866.69
2018-06-29T21:57:56.863Z,96871.66
2018-06-29T22:00:24.308Z,96867.92
2018-06-29T22:02:51.758Z,96862.23
2018-06-29T22:05:19.220Z,96865.62
2018-06-29T22:07:46.704Z,96866.86
2018-06-29T22:10:14.157Z,96861.30
2018-06-29T22:12:41.626Z,96870.02
2018-06-29T22:15:09.068Z,96863.67
2018-06-29T22:17:36.458Z,96869.77
2018-06-29T22:20:03.934Z,96870.56
2018-06-29T22:22:31.380Z,96869.70
2018-06-29T22:24:58.845Z,96871.14
2018-06-29T22:27:26.863Z,96861.10
2018-06-29T22:29:54.334Z,96865.59
2018-06-29T22:32:21.738Z,96866.14
2018-06-29T22:34:49.261Z,96869.13
2018-06-29T22:37:16.710Z,96856.81
2018-06-29T22:39:44.176Z,96856.56
2018-06-29T22:42:11.625Z,96857.05
2018-06-29T22:44:39.148Z,96853.59
2018-06-29T22:47:06.616Z,96854.19
2018-06-29T22:49:34.049Z,96849.61
2018-06-29T22:52:01.514Z,96849.75
2018-06-29T22:54:28.937Z,96849.09
2018-06-29T22:56:56.557Z,96845.42
2018-06-29T22:59:24.076Z,96851.52
2018-06-29T23:01:51.485Z,96846.34
2018-06-29T23:04:18.947Z,96846.70
2018-06-29T23:06:46.573Z,96851.29
2018-06-29T23:09:14.085Z,96854.25
2018-06-29T23:11:41.685Z,96851.17
2018-06-29T23:14:09.124Z,96853.61
2018-06-29T23:16:36.578Z,96849.26
2018-06-29T23:19:04.079Z,96847.69
2018-06-29T23:21:31.580Z,96852.61
2018-06-29T23:23:59.123Z,96849.28
2018-06-29T23:26:26.605Z,96852.80
2018-06-29T23:28:54.059Z,96851.66
2018-06-29T23:31:21.538Z,96854.85
2018-06-29T23:33:49.694Z,96861.66
2018-06-29T23:36:17.183Z,96856.09
2018-06-29T23:38:45.015Z,96856.41
2018-06-29T23:41:12.467Z,96860.11
2018-06-29T23:43:40.844Z,96851.80
2018-06-29T23:46:08.330Z,96854.09
2018-06-29T23:48:35.793Z,96849.17
2018-06-29T23:51:03.194Z,96853.08
2018-06-29T23:53:30.672Z,96847.52
2018-06-29T23:55:58.072Z,96845.81
2018-06-29T23:58:25.537Z,96847.81
